sensor_id;sensor_type;location;lat;lon;timestamp;P1;durP1;ratioP1;P2;durP2;ratioP2
572;SDS011;271;51.114;13.780;2024-01-30T00:02:32;32.80;;;13.15;;
572;SDS011;271;51.114;13.780;2024-01-30T00:05:20;27.13;;;12.00;;
572;SDS011;271;51.114;13.780;2024-01-30T00:08:08;33.03;;;13.07;;
572;SDS011;271;51.114;13.780;2024-01-30T00:10:55;30.00;;;13.13;;
572;SDS011;271;51.114;13.780;2024-01-30T00:13:43;28.83;;;12.68;;
572;SDS011;271;51.114;13.780;2024-01-30T00:16:32;30.95;;;12.55;;
572;SDS011;271;51.114;13.780;2024-01-30T00:19:20;29.83;;;12.52;;
572;SDS011;271;51.114;13.780;2024-01-30T00:22:08;31.75;;;12.60;;
572;SDS011;271;51.114;13.780;2024-01-30T00:24:55;28.48;;;12.07;;
572;SDS011;271;51.114;13.780;2024-01-30T00:27:43;32.72;;;12.40;;
572;SDS011;271;51.114;13.780;2024-01-30T00:30:31;28.15;;;12.65;;
572;SDS011;271;51.114;13.780;2024-01-30T00:33:20;28.52;;;11.95;;
572;SDS011;271;51.114;13.780;2024-01-30T00:36:08;29.42;;;13.13;;
572;SDS011;271;51.114;13.780;2024-01-30T00:38:56;28.23;;;12.60;;
572;SDS011;271;51.114;13.780;2024-01-30T00:41:44;30.92;;;11.98;;
572;SDS011;271;51.114;13.780;2024-01-30T00:44:34;28.02;;;12.90;;
572;SDS011;271;51.114;13.780;2024-01-30T00:47:23;29.95;;;11.52;;
572;SDS011;271;51.114;13.780;2024-01-30T00:50:12;28.08;;;12.30;;
572;SDS011;271;51.114;13.780;2024-01-30T00:52:59;30.70;;;13.02;;
572;SDS011;271;51.114;13.780;2024-01-30T00:55:47;33.92;;;13.07;;
572;SDS011;271;51.114;13.780;2024-01-30T00:58:35;28.33;;;11.50;;
572;SDS011;271;51.114;13.780;2024-01-30T01:01:22;32.08;;;12.93;;
572;SDS011;271;51.114;13.780;2024-01-30T01:04:10;27.88;;;11.85;;
572;SDS011;271;51.114;13.780;2024-01-30T01:06:59;33.53;;;12.48;;
572;SDS011;271;51.114;13.780;2024-01-30T01:09:47;31.77;;;12.15;;
572;SDS011;271;51.114;13.780;2024-01-30T01:12:34;27.63;;;11.40;;
572;SDS011;271;51.114;13.780;2024-01-30T01:15:22;28.50;;;11.93;;
572;SDS011;271;51.114;13.780;2024-01-30T01:18:10;32.50;;;13.05;;
572;SDS011;271;51.114;13.780;2024-01-30T01:20:57;30.50;;;11.93;;
572;SDS011;271;51.114;13.780;2024-01-30T01:23:49;25.67;;;10.77;;
572;SDS011;271;51.114;13.780;2024-01-30T01:26:36;27.40;;;11.68;;
572;SDS011;271;51.114;13.780;2024-01-30T01:29:24;28.77;;;11.02;;
572;SDS011;271;51.114;13.780;2024-01-30T01:32:14;30.42;;;11.70;;
572;SDS011;271;51.114;13.780;2024-01-30T01:35:02;27.65;;;12.18;;
572;SDS011;271;51.114;13.780;2024-01-30T01:37:51;30.95;;;12.02;;
572;SDS011;271;51.114;13.780;2024-01-30T01:40:42;29.55;;;12.80;;
572;SDS011;271;51.114;13.780;2024-01-30T01:43:30;29.23;;;12.57;;
572;SDS011;271;51.114;13.780;2024-01-30T01:46:18;24.60;;;10.75;;
572;SDS011;271;51.114;13.780;2024-01-30T01:49:06;31.80;;;11.38;;
572;SDS011;271;51.114;13.780;2024-01-30T01:51:55;27.63;;;11.27;;
572;SDS011;271;51.114;13.780;2024-01-30T01:54:43;25.50;;;10.32;;
572;SDS011;271;51.114;13.780;2024-01-30T01:57:33;28.17;;;11.93;;
572;SDS011;271;51.114;13.780;2024-01-30T02:00:21;32.38;;;11.10;;
572;SDS011;271;51.114;13.780;2024-01-30T02:03:09;31.23;;;11.70;;
572;SDS011;271;51.114;13.780;2024-01-30T02:05:58;27.65;;;12.18;;
572;SDS011;271;51.114;13.780;2024-01-30T02:08:45;29.42;;;12.75;;
572;SDS011;271;51.114;13.780;2024-01-30T02:11:33;29.70;;;11.75;;
572;SDS011;271;51.114;13.780;2024-01-30T02:14:23;27.55;;;11.30;;
572;SDS011;271;51.114;13.780;2024-01-30T02:17:10;33.38;;;12.80;;
572;SDS011;271;51.114;13.780;2024-01-30T02:19:58;28.00;;;10.70;;
572;SDS011;271;51.114;13.780;2024-01-30T02:22:47;28.50;;;11.93;;
572;SDS011;271;51.114;13.780;2024-01-30T02:25:38;28.40;;;11.55;;
572;SDS011;271;51.114;13.780;2024-01-30T02:28:29;31.40;;;12.70;;
572;SDS011;271;51.114;13.780;2024-01-30T02:31:17;29.73;;;12.02;;
572;SDS011;271;51.114;13.780;2024-01-30T02:34:05;29.15;;;11.45;;
572;SDS011;271;51.114;13.780;2024-01-30T02:36:52;31.83;;;12.90;;
572;SDS011;271;51.114;13.780;2024-01-30T02:39:41;29.90;;;11.52;;
572;SDS011;271;51.114;13.780;2024-01-30T02:42:29;27.30;;;11.73;;
572;SDS011;271;51.114;13.780;2024-01-30T02:45:17;25.42;;;11.63;;
572;SDS011;271;51.114;13.780;2024-01-30T02:48:05;29.45;;;12.15;;
572;SDS011;271;51.114;13.780;2024-01-30T02:50:53;29.73;;;11.35;;
572;SDS011;271;51.114;13.780;2024-01-30T02:53:41;28.33;;;11.45;;
572;SDS011;271;51.114;13.780;2024-01-30T02:56:30;29.52;;;11.60;;
572;SDS011;271;51.114;13.780;2024-01-30T02:59:17;28.77;;;11.20;;
572;SDS011;271;51.114;13.780;2024-01-30T03:02:05;31.10;;;12.23;;
572;SDS011;271;51.114;13.780;2024-01-30T03:04:53;28.70;;;11.68;;
572;SDS011;271;51.114;13.780;2024-01-30T03:07:40;31.40;;;11.55;;
572;SDS011;271;51.114;13.780;2024-01-30T03:10:28;34.75;;;11.88;;
572;SDS011;271;51.114;13.780;2024-01-30T03:13:17;34.65;;;11.93;;
572;SDS011;271;51.114;13.780;2024-01-30T03:16:05;31.50;;;12.73;;
572;SDS011;271;51.114;13.780;2024-01-30T03:18:53;31.08;;;12.35;;
572;SDS011;271;51.114;13.780;2024-01-30T03:21:41;31.25;;;12.55;;
572;SDS011;271;51.114;13.780;2024-01-30T03:24:28;31.80;;;12.75;;
572;SDS011;271;51.114;13.780;2024-01-30T03:27:16;30.20;;;12.98;;
572;SDS011;271;51.114;13.780;2024-01-30T03:30:06;31.67;;;12.98;;
572;SDS011;271;51.114;13.780;2024-01-30T03:32:54;31.65;;;12.52;;
572;SDS011;271;51.114;13.780;2024-01-30T03:35:42;28.42;;;12.13;;
572;SDS011;271;51.114;13.780;2024-01-30T03:38:30;30.20;;;12.55;;
572;SDS011;271;51.114;13.780;2024-01-30T03:41:18;30.23;;;11.18;;
572;SDS011;271;51.114;13.780;2024-01-30T03:44:06;29.90;;;12.35;;
572;SDS011;271;51.114;13.780;2024-01-30T03:46:55;29.00;;;11.85;;
572;SDS011;271;51.114;13.780;2024-01-30T03:49:43;28.95;;;12.23;;
572;SDS011;271;51.114;13.780;2024-01-30T03:52:30;31.50;;;13.75;;
572;SDS011;271;51.114;13.780;2024-01-30T03:55:18;29.13;;;12.63;;
572;SDS011;271;51.114;13.780;2024-01-30T03:58:06;29.38;;;12.23;;
572;SDS011;271;51.114;13.780;2024-01-30T04:00:53;28.50;;;13.20;;
572;SDS011;271;51.114;13.780;2024-01-30T04:03:42;31.30;;;11.90;;
572;SDS011;271;51.114;13.780;2024-01-30T04:06:30;27.65;;;12.30;;
572;SDS011;271;51.114;13.780;2024-01-30T04:09:18;30.25;;;12.95;;
572;SDS011;271;51.114;13.780;2024-01-30T04:12:05;29.67;;;13.35;;
572;SDS011;271;51.114;13.780;2024-01-30T04:14:53;32.30;;;14.73;;
572;SDS011;271;51.114;13.780;2024-01-30T04:17:41;30.27;;;12.43;;
572;SDS011;271;51.114;13.780;2024-01-30T04:20:30;32.30;;;13.45;;
572;SDS011;271;51.114;13.780;2024-01-30T04:23:18;32.70;;;12.30;;
572;SDS011;271;51.114;13.780;2024-01-30T04:26:05;30.17;;;12.65;;
572;SDS011;271;51.114;13.780;2024-01-30T04:28:53;32.20;;;14.25;;
572;SDS011;271;51.114;13.780;2024-01-30T04:31:41;32.38;;;11.95;;
572;SDS011;271;51.114;13.780;2024-01-30T04:34:28;29.55;;;13.10;;
572;SDS011;271;51.114;13.780;2024-01-30T04:37:17;35.55;;;13.88;;
572;SDS011;271;51.114;13.780;2024-01-30T04:40:06;30.58;;;11.80;;
572;SDS011;271;51.114;13.780;2024-01-30T04:42:55;31.40;;;12.25;;
572;SDS011;271;51.114;13.780;2024-01-30T04:45:43;34.65;;;13.05;;
572;SDS011;271;51.114;13.780;2024-01-30T04:48:30;29.02;;;12.45;;
572;SDS011;271;51.114;13.780;2024-01-30T04:51:18;31.45;;;13.23;;
572;SDS011;271;51.114;13.780;2024-01-30T04:54:07;35.22;;;12.05;;
572;SDS011;271;51.114;13.780;2024-01-30T04:56:55;28.73;;;12.82;;
572;SDS011;271;51.114;13.780;2024-01-30T04:59:42;30.23;;;12.00;;
572;SDS011;271;51.114;13.780;2024-01-30T05:02:30;32.35;;;13.48;;
572;SDS011;271;51.114;13.780;2024-01-30T05:05:18;28.50;;;11.77;;
572;SDS011;271;51.114;13.780;2024-01-30T05:08:06;32.47;;;10.95;;
572;SDS011;271;51.114;13.780;2024-01-30T05:10:55;28.15;;;11.38;;
572;SDS011;271;51.114;13.780;2024-01-30T05:13:43;30.33;;;12.65;;
572;SDS011;271;51.114;13.780;2024-01-30T05:16:31;27.77;;;12.85;;
572;SDS011;271;51.114;13.780;2024-01-30T05:19:18;32.03;;;13.43;;
572;SDS011;271;51.114;13.780;2024-01-30T05:22:09;28.80;;;12.32;;
572;SDS011;271;51.114;13.780;2024-01-30T05:24:56;34.08;;;12.32;;
572;SDS011;271;51.114;13.780;2024-01-30T05:27:45;29.38;;;11.15;;
572;SDS011;271;51.114;13.780;2024-01-30T05:30:33;31.38;;;12.55;;
572;SDS011;271;51.114;13.780;2024-01-30T05:33:21;31.23;;;12.18;;
572;SDS011;271;51.114;13.780;2024-01-30T05:36:11;31.17;;;12.50;;
572;SDS011;271;51.114;13.780;2024-01-30T05:38:59;28.75;;;12.57;;
572;SDS011;271;51.114;13.780;2024-01-30T05:41:46;30.85;;;12.50;;
572;SDS011;271;51.114;13.780;2024-01-30T05:44:35;27.65;;;11.48;;
572;SDS011;271;51.114;13.780;2024-01-30T05:47:23;30.80;;;13.27;;
572;SDS011;271;51.114;13.780;2024-01-30T05:50:11;32.78;;;12.35;;
572;SDS011;271;51.114;13.780;2024-01-30T05:52:59;30.10;;;11.82;;
572;SDS011;271;51.114;13.780;2024-01-30T05:55:46;31.67;;;12.43;;
572;SDS011;271;51.114;13.780;2024-01-30T05:58:34;29.17;;;13.05;;
572;SDS011;271;51.114;13.780;2024-01-30T06:01:24;35.63;;;13.82;;
572;SDS011;271;51.114;13.780;2024-01-30T06:04:12;27.25;;;11.55;;
572;SDS011;271;51.114;13.780;2024-01-30T06:06:59;26.70;;;11.07;;
572;SDS011;271;51.114;13.780;2024-01-30T06:09:47;28.30;;;11.25;;
572;SDS011;271;51.114;13.780;2024-01-30T06:12:35;30.15;;;11.90;;
572;SDS011;271;51.114;13.780;2024-01-30T06:15:23;31.17;;;12.10;;
572;SDS011;271;51.114;13.780;2024-01-30T06:18:13;29.65;;;11.68;;
572;SDS011;271;51.114;13.780;2024-01-30T06:21:00;33.40;;;14.23;;
572;SDS011;271;51.114;13.780;2024-01-30T06:23:48;28.95;;;12.35;;
572;SDS011;271;51.114;13.780;2024-01-30T06:26:36;28.65;;;12.35;;
572;SDS011;271;51.114;13.780;2024-01-30T06:29:23;29.58;;;12.80;;
572;SDS011;271;51.114;13.780;2024-01-30T06:32:12;31.27;;;11.70;;
572;SDS011;271;51.114;13.780;2024-01-30T06:35:01;29.25;;;12.43;;
572;SDS011;271;51.114;13.780;2024-01-30T06:37:49;32.55;;;11.70;;
572;SDS011;271;51.114;13.780;2024-01-30T06:40:37;28.85;;;11.68;;
572;SDS011;271;51.114;13.780;2024-01-30T06:43:25;30.55;;;11.50;;
572;SDS011;271;51.114;13.780;2024-01-30T06:46:12;29.27;;;11.35;;
572;SDS011;271;51.114;13.780;2024-01-30T06:49:00;30.08;;;12.38;;
572;SDS011;271;51.114;13.780;2024-01-30T06:51:49;29.35;;;11.93;;
572;SDS011;271;51.114;13.780;2024-01-30T06:54:37;27.38;;;10.82;;
572;SDS011;271;51.114;13.780;2024-01-30T06:57:25;26.40;;;10.07;;
572;SDS011;271;51.114;13.780;2024-01-30T07:00:14;32.20;;;12.50;;
572;SDS011;271;51.114;13.780;2024-01-30T07:03:04;29.15;;;12.05;;
572;SDS011;271;51.114;13.780;2024-01-30T07:05:52;29.80;;;12.00;;
572;SDS011;271;51.114;13.780;2024-01-30T07:08:41;27.25;;;11.48;;
572;SDS011;271;51.114;13.780;2024-01-30T07:11:29;30.48;;;12.80;;
572;SDS011;271;51.114;13.780;2024-01-30T07:14:16;29.15;;;11.48;;
572;SDS011;271;51.114;13.780;2024-01-30T07:17:04;29.20;;;11.60;;
572;SDS011;271;51.114;13.780;2024-01-30T07:19:53;29.45;;;12.15;;
572;SDS011;271;51.114;13.780;2024-01-30T07:22:41;28.90;;;11.40;;
572;SDS011;271;51.114;13.780;2024-01-30T07:25:29;28.58;;;12.85;;
572;SDS011;271;51.114;13.780;2024-01-30T07:28:17;30.00;;;11.25;;
572;SDS011;271;51.114;13.780;2024-01-30T07:31:05;29.38;;;11.43;;
572;SDS011;271;51.114;13.780;2024-01-30T07:33:52;29.30;;;11.63;;
572;SDS011;271;51.114;13.780;2024-01-30T07:36:40;28.83;;;11.80;;
572;SDS011;271;51.114;13.780;2024-01-30T07:39:28;27.48;;;10.80;;
572;SDS011;271;51.114;13.780;2024-01-30T07:42:17;28.88;;;10.90;;
572;SDS011;271;51.114;13.780;2024-01-30T07:45:05;26.48;;;10.20;;
572;SDS011;271;51.114;13.780;2024-01-30T07:47:53;28.15;;;11.70;;
572;SDS011;271;51.114;13.780;2024-01-30T07:50:41;26.08;;;11.98;;
572;SDS011;271;51.114;13.780;2024-01-30T07:53:28;27.65;;;11.10;;
572;SDS011;271;51.114;13.780;2024-01-30T07:56:16;29.15;;;11.43;;
572;SDS011;271;51.114;13.780;2024-01-30T07:59:05;30.13;;;10.70;;
572;SDS011;271;51.114;13.780;2024-01-30T08:01:56;31.13;;;12.00;;
572;SDS011;271;51.114;13.780;2024-01-30T08:04:44;30.60;;;11.70;;
572;SDS011;271;51.114;13.780;2024-01-30T08:07:34;30.45;;;11.35;;
572;SDS011;271;51.114;13.780;2024-01-30T08:10:22;30.95;;;11.20;;
572;SDS011;271;51.114;13.780;2024-01-30T08:13:09;27.83;;;11.00;;
572;SDS011;271;51.114;13.780;2024-01-30T08:15:58;29.33;;;11.23;;
572;SDS011;271;51.114;13.780;2024-01-30T08:18:46;29.48;;;12.63;;
572;SDS011;271;51.114;13.780;2024-01-30T08:21:34;27.95;;;12.25;;
572;SDS011;271;51.114;13.780;2024-01-30T08:24:22;27.02;;;10.38;;
572;SDS011;271;51.114;13.780;2024-01-30T08:27:09;25.83;;;10.73;;
572;SDS011;271;51.114;13.780;2024-01-30T08:29:58;33.47;;;9.80;;
572;SDS011;271;51.114;13.780;2024-01-30T08:32:47;25.27;;;10.95;;
572;SDS011;271;51.114;13.780;2024-01-30T08:35:34;27.73;;;11.20;;
572;SDS011;271;51.114;13.780;2024-01-30T08:38:22;26.30;;;11.02;;
572;SDS011;271;51.114;13.780;2024-01-30T08:41:10;25.30;;;10.45;;
572;SDS011;271;51.114;13.780;2024-01-30T08:43:57;26.02;;;10.45;;
572;SDS011;271;51.114;13.780;2024-01-30T08:46:45;25.63;;;10.07;;
572;SDS011;271;51.114;13.780;2024-01-30T08:49:34;23.90;;;9.40;;
572;SDS011;271;51.114;13.780;2024-01-30T08:52:22;23.67;;;9.13;;
572;SDS011;271;51.114;13.780;2024-01-30T08:55:10;26.25;;;10.95;;
572;SDS011;271;51.114;13.780;2024-01-30T08:57:58;27.27;;;9.32;;
572;SDS011;271;51.114;13.780;2024-01-30T09:00:45;26.77;;;10.30;;
572;SDS011;271;51.114;13.780;2024-01-30T09:03:33;26.63;;;9.57;;
572;SDS011;271;51.114;13.780;2024-01-30T09:06:23;25.55;;;9.50;;
572;SDS011;271;51.114;13.780;2024-01-30T09:09:12;25.00;;;9.70;;
572;SDS011;271;51.114;13.780;2024-01-30T09:12:00;24.48;;;9.52;;
572;SDS011;271;51.114;13.780;2024-01-30T09:14:52;25.75;;;9.13;;
572;SDS011;271;51.114;13.780;2024-01-30T09:17:41;24.15;;;9.68;;
572;SDS011;271;51.114;13.780;2024-01-30T09:20:28;23.55;;;9.23;;
572;SDS011;271;51.114;13.780;2024-01-30T09:23:17;21.80;;;8.55;;
572;SDS011;271;51.114;13.780;2024-01-30T09:26:05;26.17;;;9.57;;
572;SDS011;271;51.114;13.780;2024-01-30T09:28:53;23.40;;;8.90;;
572;SDS011;271;51.114;13.780;2024-01-30T09:31:42;25.97;;;10.67;;
572;SDS011;271;51.114;13.780;2024-01-30T09:34:30;25.63;;;8.70;;
572;SDS011;271;51.114;13.780;2024-01-30T09:37:18;23.50;;;9.27;;
572;SDS011;271;51.114;13.780;2024-01-30T09:40:08;26.40;;;9.30;;
572;SDS011;271;51.114;13.780;2024-01-30T09:42:56;24.60;;;9.67;;
572;SDS011;271;51.114;13.780;2024-01-30T09:45:45;26.35;;;10.20;;
572;SDS011;271;51.114;13.780;2024-01-30T09:48:35;25.73;;;9.82;;
572;SDS011;271;51.114;13.780;2024-01-30T09:51:23;26.75;;;11.57;;
572;SDS011;271;51.114;13.780;2024-01-30T09:54:13;26.45;;;9.68;;
572;SDS011;271;51.114;13.780;2024-01-30T09:57:03;27.08;;;10.45;;
572;SDS011;271;51.114;13.780;2024-01-30T09:59:51;23.80;;;10.18;;
572;SDS011;271;51.114;13.780;2024-01-30T10:02:40;27.15;;;11.23;;
572;SDS011;271;51.114;13.780;2024-01-30T10:05:28;27.65;;;11.23;;
572;SDS011;271;51.114;13.780;2024-01-30T10:08:19;25.85;;;10.48;;
572;SDS011;271;51.114;13.780;2024-01-30T10:11:07;24.20;;;9.68;;
572;SDS011;271;51.114;13.780;2024-01-30T10:13:57;28.55;;;11.38;;
572;SDS011;271;51.114;13.780;2024-01-30T10:16:45;25.08;;;9.88;;
572;SDS011;271;51.114;13.780;2024-01-30T10:19:33;26.17;;;10.40;;
572;SDS011;271;51.114;13.780;2024-01-30T10:22:21;23.70;;;9.27;;
572;SDS011;271;51.114;13.780;2024-01-30T10:25:09;28.73;;;10.30;;
572;SDS011;271;51.114;13.780;2024-01-30T10:27:58;24.03;;;10.20;;
572;SDS011;271;51.114;13.780;2024-01-30T10:30:47;25.58;;;10.63;;
572;SDS011;271;51.114;13.780;2024-01-30T10:33:45;24.05;;;10.30;;
572;SDS011;271;51.114;13.780;2024-01-30T10:36:32;25.90;;;10.23;;
572;SDS011;271;51.114;13.780;2024-01-30T10:39:29;26.00;;;10.20;;
572;SDS011;271;51.114;13.780;2024-01-30T10:42:18;25.92;;;10.07;;
572;SDS011;271;51.114;13.780;2024-01-30T10:45:06;25.00;;;10.05;;
572;SDS011;271;51.114;13.780;2024-01-30T10:47:56;24.85;;;10.38;;
572;SDS011;271;51.114;13.780;2024-01-30T10:50:46;30.13;;;10.68;;
572;SDS011;271;51.114;13.780;2024-01-30T10:53:33;27.83;;;11.43;;
572;SDS011;271;51.114;13.780;2024-01-30T10:56:23;24.83;;;10.25;;
572;SDS011;271;51.114;13.780;2024-01-30T10:59:11;26.90;;;9.85;;
572;SDS011;271;51.114;13.780;2024-01-30T11:02:00;26.83;;;11.68;;
572;SDS011;271;51.114;13.780;2024-01-30T11:04:50;25.17;;;10.60;;
572;SDS011;271;51.114;13.780;2024-01-30T11:07:43;25.92;;;10.75;;
572;SDS011;271;51.114;13.780;2024-01-30T11:10:31;26.88;;;10.77;;
572;SDS011;271;51.114;13.780;2024-01-30T11:13:19;24.88;;;10.20;;
572;SDS011;271;51.114;13.780;2024-01-30T11:16:06;25.92;;;10.30;;
572;SDS011;271;51.114;13.780;2024-01-30T11:19:00;27.15;;;10.98;;
572;SDS011;271;51.114;13.780;2024-01-30T11:21:51;27.05;;;10.90;;
572;SDS011;271;51.114;13.780;2024-01-30T11:24:40;27.38;;;9.88;;
572;SDS011;271;51.114;13.780;2024-01-30T11:27:28;25.70;;;10.57;;
572;SDS011;271;51.114;13.780;2024-01-30T11:30:21;24.90;;;10.20;;
572;SDS011;271;51.114;13.780;2024-01-30T11:33:10;26.30;;;10.93;;
572;SDS011;271;51.114;13.780;2024-01-30T11:35:59;28.13;;;11.60;;
572;SDS011;271;51.114;13.780;2024-01-30T11:38:48;25.77;;;9.87;;
572;SDS011;271;51.114;13.780;2024-01-30T11:41:36;27.50;;;11.07;;
572;SDS011;271;51.114;13.780;2024-01-30T11:44:25;24.90;;;10.70;;
572;SDS011;271;51.114;13.780;2024-01-30T11:47:13;28.17;;;11.45;;
572;SDS011;271;51.114;13.780;2024-01-30T11:50:03;28.15;;;10.63;;
572;SDS011;271;51.114;13.780;2024-01-30T11:52:55;25.90;;;11.40;;
572;SDS011;271;51.114;13.780;2024-01-30T11:55:50;27.85;;;11.73;;
572;SDS011;271;51.114;13.780;2024-01-30T11:58:42;28.20;;;12.35;;
572;SDS011;271;51.114;13.780;2024-01-30T12:01:30;29.90;;;11.15;;
572;SDS011;271;51.114;13.780;2024-01-30T12:04:18;28.20;;;11.30;;
572;SDS011;271;51.114;13.780;2024-01-30T12:07:06;27.02;;;11.68;;
572;SDS011;271;51.114;13.780;2024-01-30T12:09:54;32.20;;;13.38;;
572;SDS011;271;51.114;13.780;2024-01-30T12:12:46;24.85;;;11.55;;
572;SDS011;271;51.114;13.780;2024-01-30T12:15:35;26.20;;;10.75;;
572;SDS011;271;51.114;13.780;2024-01-30T12:18:23;27.27;;;12.32;;
572;SDS011;271;51.114;13.780;2024-01-30T12:21:11;28.45;;;11.60;;
572;SDS011;271;51.114;13.780;2024-01-30T12:23:59;28.75;;;10.00;;
572;SDS011;271;51.114;13.780;2024-01-30T12:26:47;28.70;;;10.88;;
572;SDS011;271;51.114;13.780;2024-01-30T12:29:36;28.38;;;11.45;;
572;SDS011;271;51.114;13.780;2024-01-30T12:32:23;29.30;;;11.93;;
572;SDS011;271;51.114;13.780;2024-01-30T12:35:12;28.05;;;10.50;;
572;SDS011;271;51.114;13.780;2024-01-30T12:38:03;28.75;;;11.60;;
572;SDS011;271;51.114;13.780;2024-01-30T12:40:53;28.35;;;11.45;;
572;SDS011;271;51.114;13.780;2024-01-30T12:43:42;26.73;;;10.95;;
572;SDS011;271;51.114;13.780;2024-01-30T12:46:31;29.20;;;11.50;;
572;SDS011;271;51.114;13.780;2024-01-30T12:49:20;28.58;;;11.90;;
572;SDS011;271;51.114;13.780;2024-01-30T12:52:08;28.10;;;12.18;;
572;SDS011;271;51.114;13.780;2024-01-30T12:54:56;30.05;;;12.25;;
572;SDS011;271;51.114;13.780;2024-01-30T12:57:44;25.13;;;10.32;;
572;SDS011;271;51.114;13.780;2024-01-30T13:00:32;29.20;;;11.55;;
572;SDS011;271;51.114;13.780;2024-01-30T13:03:21;28.70;;;11.57;;
572;SDS011;271;51.114;13.780;2024-01-30T13:06:10;28.55;;;12.32;;
572;SDS011;271;51.114;13.780;2024-01-30T13:08:58;29.15;;;12.50;;
572;SDS011;271;51.114;13.780;2024-01-30T13:11:46;27.70;;;11.70;;
572;SDS011;271;51.114;13.780;2024-01-30T13:14:33;29.33;;;12.02;;
572;SDS011;271;51.114;13.780;2024-01-30T13:17:24;30.85;;;12.25;;
572;SDS011;271;51.114;13.780;2024-01-30T13:20:13;26.63;;;11.10;;
572;SDS011;271;51.114;13.780;2024-01-30T13:23:02;30.65;;;11.88;;
572;SDS011;271;51.114;13.780;2024-01-30T13:25:50;27.33;;;11.32;;
572;SDS011;271;51.114;13.780;2024-01-30T13:28:39;26.10;;;11.23;;
572;SDS011;271;51.114;13.780;2024-01-30T13:31:33;28.70;;;11.70;;
572;SDS011;271;51.114;13.780;2024-01-30T13:34:21;27.48;;;12.02;;
572;SDS011;271;51.114;13.780;2024-01-30T13:37:10;27.38;;;11.60;;
572;SDS011;271;51.114;13.780;2024-01-30T13:39:59;25.50;;;11.35;;
572;SDS011;271;51.114;13.780;2024-01-30T13:42:48;31.25;;;13.35;;
572;SDS011;271;51.114;13.780;2024-01-30T13:45:36;32.97;;;12.70;;
572;SDS011;271;51.114;13.780;2024-01-30T13:48:25;30.98;;;13.27;;
572;SDS011;271;51.114;13.780;2024-01-30T13:51:14;26.50;;;11.45;;
572;SDS011;271;51.114;13.780;2024-01-30T13:54:05;28.92;;;11.85;;
572;SDS011;271;51.114;13.780;2024-01-30T13:56:53;26.70;;;11.70;;
572;SDS011;271;51.114;13.780;2024-01-30T13:59:42;31.85;;;12.80;;
572;SDS011;271;51.114;13.780;2024-01-30T14:02:30;28.00;;;11.32;;
572;SDS011;271;51.114;13.780;2024-01-30T14:05:19;29.83;;;11.68;;
572;SDS011;271;51.114;13.780;2024-01-30T14:08:11;28.48;;;12.52;;
572;SDS011;271;51.114;13.780;2024-01-30T14:11:01;28.50;;;12.23;;
572;SDS011;271;51.114;13.780;2024-01-30T14:13:50;29.63;;;11.70;;
572;SDS011;271;51.114;13.780;2024-01-30T14:16:39;27.65;;;10.82;;
572;SDS011;271;51.114;13.780;2024-01-30T14:19:27;28.77;;;12.43;;
572;SDS011;271;51.114;13.780;2024-01-30T14:22:16;27.80;;;11.85;;
572;SDS011;271;51.114;13.780;2024-01-30T14:25:06;33.55;;;11.95;;
572;SDS011;271;51.114;13.780;2024-01-30T14:27:57;31.42;;;13.00;;
572;SDS011;271;51.114;13.780;2024-01-30T14:30:46;30.20;;;14.00;;
572;SDS011;271;51.114;13.780;2024-01-30T14:33:37;28.05;;;12.27;;
572;SDS011;271;51.114;13.780;2024-01-30T14:36:26;31.60;;;12.55;;
572;SDS011;271;51.114;13.780;2024-01-30T14:39:15;28.95;;;12.50;;
572;SDS011;271;51.114;13.780;2024-01-30T14:42:04;34.35;;;12.43;;
572;SDS011;271;51.114;13.780;2024-01-30T14:44:55;29.35;;;12.65;;
572;SDS011;271;51.114;13.780;2024-01-30T14:47:43;30.00;;;12.15;;
572;SDS011;271;51.114;13.780;2024-01-30T14:50:32;30.38;;;12.13;;
572;SDS011;271;51.114;13.780;2024-01-30T14:53:20;29.10;;;11.82;;
572;SDS011;271;51.114;13.780;2024-01-30T14:56:08;30.30;;;12.57;;
572;SDS011;271;51.114;13.780;2024-01-30T14:58:56;30.20;;;11.75;;
572;SDS011;271;51.114;13.780;2024-01-30T15:01:45;32.25;;;12.07;;
572;SDS011;271;51.114;13.780;2024-01-30T15:04:34;26.38;;;10.73;;
572;SDS011;271;51.114;13.780;2024-01-30T15:07:21;29.50;;;12.20;;
572;SDS011;271;51.114;13.780;2024-01-30T15:10:09;28.80;;;11.40;;
572;SDS011;271;51.114;13.780;2024-01-30T15:12:57;30.20;;;12.52;;
572;SDS011;271;51.114;13.780;2024-01-30T15:15:45;32.03;;;13.02;;
572;SDS011;271;51.114;13.780;2024-01-30T15:18:34;31.52;;;12.57;;
572;SDS011;271;51.114;13.780;2024-01-30T15:21:21;28.00;;;11.25;;
572;SDS011;271;51.114;13.780;2024-01-30T15:24:09;30.27;;;12.73;;
572;SDS011;271;51.114;13.780;2024-01-30T15:27:00;29.50;;;11.20;;
572;SDS011;271;51.114;13.780;2024-01-30T15:29:48;32.63;;;12.20;;
572;SDS011;271;51.114;13.780;2024-01-30T15:32:36;29.98;;;12.77;;
572;SDS011;271;51.114;13.780;2024-01-30T15:35:25;30.45;;;12.15;;
572;SDS011;271;51.114;13.780;2024-01-30T15:38:13;33.75;;;11.45;;
572;SDS011;271;51.114;13.780;2024-01-30T15:41:01;27.50;;;11.85;;
572;SDS011;271;51.114;13.780;2024-01-30T15:43:49;32.17;;;13.20;;
572;SDS011;271;51.114;13.780;2024-01-30T15:46:37;30.13;;;12.95;;
572;SDS011;271;51.114;13.780;2024-01-30T15:49:24;32.38;;;13.43;;
572;SDS011;271;51.114;13.780;2024-01-30T15:52:13;32.40;;;13.38;;
572;SDS011;271;51.114;13.780;2024-01-30T15:55:03;33.50;;;12.13;;
572;SDS011;271;51.114;13.780;2024-01-30T15:57:51;28.60;;;12.13;;
572;SDS011;271;51.114;13.780;2024-01-30T16:00:40;29.05;;;12.10;;
572;SDS011;271;51.114;13.780;2024-01-30T16:03:28;34.38;;;13.60;;
572;SDS011;271;51.114;13.780;2024-01-30T16:06:15;27.92;;;11.90;;
572;SDS011;271;51.114;13.780;2024-01-30T16:09:05;28.95;;;11.35;;
572;SDS011;271;51.114;13.780;2024-01-30T16:11:52;32.70;;;13.48;;
572;SDS011;271;51.114;13.780;2024-01-30T16:14:40;32.40;;;13.15;;
572;SDS011;271;51.114;13.780;2024-01-30T16:17:28;29.92;;;13.20;;
572;SDS011;271;51.114;13.780;2024-01-30T16:20:16;29.25;;;13.23;;
572;SDS011;271;51.114;13.780;2024-01-30T16:23:04;31.27;;;12.90;;
572;SDS011;271;51.114;13.780;2024-01-30T16:25:53;30.65;;;13.75;;
572;SDS011;271;51.114;13.780;2024-01-30T16:28:42;35.20;;;16.52;;
572;SDS011;271;51.114;13.780;2024-01-30T16:31:29;29.65;;;12.70;;
572;SDS011;271;51.114;13.780;2024-01-30T16:34:18;30.35;;;13.20;;
572;SDS011;271;51.114;13.780;2024-01-30T16:37:05;28.80;;;12.52;;
572;SDS011;271;51.114;13.780;2024-01-30T16:39:53;30.50;;;13.23;;
572;SDS011;271;51.114;13.780;2024-01-30T16:42:42;35.75;;;13.80;;
572;SDS011;271;51.114;13.780;2024-01-30T16:45:30;33.08;;;14.05;;
572;SDS011;271;51.114;13.780;2024-01-30T16:48:18;28.95;;;13.13;;
572;SDS011;271;51.114;13.780;2024-01-30T16:51:08;30.63;;;13.10;;
572;SDS011;271;51.114;13.780;2024-01-30T16:53:56;32.17;;;12.75;;
572;SDS011;271;51.114;13.780;2024-01-30T16:56:43;33.03;;;14.25;;
572;SDS011;271;51.114;13.780;2024-01-30T16:59:35;34.15;;;12.88;;
572;SDS011;271;51.114;13.780;2024-01-30T17:02:22;30.75;;;12.88;;
572;SDS011;271;51.114;13.780;2024-01-30T17:05:10;30.60;;;12.65;;
572;SDS011;271;51.114;13.780;2024-01-30T17:07:58;33.00;;;13.13;;
572;SDS011;271;51.114;13.780;2024-01-30T17:10:46;35.42;;;14.40;;
572;SDS011;271;51.114;13.780;2024-01-30T17:13:34;33.10;;;13.27;;